sensor_id;sensor_type;location;lat;lon;timestamp;P1;durP1;ratioP1;P2;durP2;ratioP2
82338;SDS011;72584;56.910;60.612;2023-09-19T00:00:37;7.38;;;6.30;;
82338;SDS011;72584;56.910;60.612;2023-09-19T00:03:03;9.50;;;6.85;;
82338;SDS011;72584;56.910;60.612;2023-09-19T00:05:30;10.68;;;6.72;;
82338;SDS011;72584;56.910;60.612;2023-09-19T00:08:00;9.95;;;5.82;;
82338;SDS011;72584;56.910;60.612;2023-09-19T00:10:25;10.40;;;6.50;;
82338;SDS011;72584;56.910;60.612;2023-09-19T00:12:52;8.55;;;6.40;;
82338;SDS011;72584;56.910;60.612;2023-09-19T00:15:21;15.43;;;6.78;;
82338;SDS011;72584;56.910;60.612;2023-09-19T00:17:46;11.32;;;6.30;;
82338;SDS011;72584;56.910;60.612;2023-09-19T00:20:13;10.45;;;6.55;;
82338;SDS011;72584;56.910;60.612;2023-09-19T00:22:41;18.23;;;6.70;;
82338;SDS011;72584;56.910;60.612;2023-09-19T00:25:08;10.05;;;5.95;;
82338;SDS011;72584;56.910;60.612;2023-09-19T00:27:35;9.45;;;5.90;;
82338;SDS011;72584;56.910;60.612;2023-09-19T00:30:00;9.55;;;6.45;;
82338;SDS011;72584;56.910;60.612;2023-09-19T00:32:25;13.68;;;6.68;;
82338;SDS011;72584;56.910;60.612;2023-09-19T00:34:56;8.80;;;5.72;;
82338;SDS011;72584;56.910;60.612;2023-09-19T00:37:22;6.55;;;5.07;;
82338;SDS011;72584;56.910;60.612;2023-09-19T00:39:47;8.48;;;6.25;;
82338;SDS011;72584;56.910;60.612;2023-09-19T00:42:21;10.45;;;6.43;;
82338;SDS011;72584;56.910;60.612;2023-09-19T00:44:47;12.00;;;5.88;;
82338;SDS011;72584;56.910;60.612;2023-09-19T00:47:16;9.70;;;5.88;;
82338;SDS011;72584;56.910;60.612;2023-09-19T00:49:43;8.50;;;6.22;;
82338;SDS011;72584;56.910;60.612;2023-09-19T00:52:08;11.77;;;6.30;;
82338;SDS011;72584;56.910;60.612;2023-09-19T00:54:35;9.93;;;6.97;;
82338;SDS011;72584;56.910;60.612;2023-09-19T00:57:01;8.30;;;5.43;;
82338;SDS011;72584;56.910;60.612;2023-09-19T00:59:26;8.63;;;7.13;;
82338;SDS011;72584;56.910;60.612;2023-09-19T01:01:52;9.07;;;6.30;;
82338;SDS011;72584;56.910;60.612;2023-09-19T01:04:19;10.15;;;6.95;;
82338;SDS011;72584;56.910;60.612;2023-09-19T01:06:45;11.38;;;6.50;;
82338;SDS011;72584;56.910;60.612;2023-09-19T01:09:11;11.00;;;7.05;;
82338;SDS011;72584;56.910;60.612;2023-09-19T01:11:40;8.93;;;5.45;;
82338;SDS011;72584;56.910;60.612;2023-09-19T01:16:56;11.35;;;5.93;;
82338;SDS011;72584;56.910;60.612;2023-09-19T01:19:39;13.25;;;6.65;;
82338;SDS011;72584;56.910;60.612;2023-09-19T01:22:21;12.50;;;6.05;;
82338;SDS011;72584;56.910;60.612;2023-09-19T01:27:51;29.60;;;17.45;;
82338;SDS011;72584;56.910;60.612;2023-09-19T01:30:19;16.13;;;7.65;;
82338;SDS011;72584;56.910;60.612;2023-09-19T01:32:49;17.73;;;6.57;;
82338;SDS011;72584;56.910;60.612;2023-09-19T01:35:17;17.70;;;6.40;;
82338;SDS011;72584;56.910;60.612;2023-09-19T01:37:43;15.25;;;7.05;;
82338;SDS011;72584;56.910;60.612;2023-09-19T01:40:09;12.15;;;6.60;;
82338;SDS011;72584;56.910;60.612;2023-09-19T01:42:45;14.55;;;7.18;;
82338;SDS011;72584;56.910;60.612;2023-09-19T01:47:56;7.88;;;5.65;;
82338;SDS011;72584;56.910;60.612;2023-09-19T01:55:50;18.77;;;6.38;;
82338;SDS011;72584;56.910;60.612;2023-09-19T02:00:42;15.90;;;7.25;;
82338;SDS011;72584;56.910;60.612;2023-09-19T02:03:08;10.20;;;5.95;;
82338;SDS011;72584;56.910;60.612;2023-09-19T02:05:34;14.15;;;6.53;;
82338;SDS011;72584;56.910;60.612;2023-09-19T02:07:59;9.60;;;6.20;;
82338;SDS011;72584;56.910;60.612;2023-09-19T02:10:25;11.88;;;6.00;;
82338;SDS011;72584;56.910;60.612;2023-09-19T02:12:51;15.82;;;6.10;;
82338;SDS011;72584;56.910;60.612;2023-09-19T02:15:16;11.93;;;5.78;;
82338;SDS011;72584;56.910;60.612;2023-09-19T02:17:44;14.82;;;6.95;;
82338;SDS011;72584;56.910;60.612;2023-09-19T02:20:11;10.82;;;6.03;;
82338;SDS011;72584;56.910;60.612;2023-09-19T02:22:40;8.35;;;5.15;;
82338;SDS011;72584;56.910;60.612;2023-09-19T02:25:05;7.63;;;5.65;;
82338;SDS011;72584;56.910;60.612;2023-09-19T02:27:32;8.35;;;5.10;;
82338;SDS011;72584;56.910;60.612;2023-09-19T02:29:57;8.02;;;5.88;;
82338;SDS011;72584;56.910;60.612;2023-09-19T02:32:23;8.52;;;5.88;;
82338;SDS011;72584;56.910;60.612;2023-09-19T02:34:48;8.73;;;5.18;;
82338;SDS011;72584;56.910;60.612;2023-09-19T02:37:17;6.65;;;5.30;;
82338;SDS011;72584;56.910;60.612;2023-09-19T02:39:44;7.10;;;5.35;;
82338;SDS011;72584;56.910;60.612;2023-09-19T02:42:09;8.75;;;6.25;;
82338;SDS011;72584;56.910;60.612;2023-09-19T02:44:35;8.43;;;4.97;;
82338;SDS011;72584;56.910;60.612;2023-09-19T02:47:00;8.65;;;4.57;;
82338;SDS011;72584;56.910;60.612;2023-09-19T02:49:25;9.43;;;5.40;;
82338;SDS011;72584;56.910;60.612;2023-09-19T02:51:51;8.45;;;4.97;;
82338;SDS011;72584;56.910;60.612;2023-09-19T02:54:16;9.95;;;6.18;;
82338;SDS011;72584;56.910;60.612;2023-09-19T02:56:42;10.48;;;5.72;;
82338;SDS011;72584;56.910;60.612;2023-09-19T02:59:08;8.40;;;5.75;;
82338;SDS011;72584;56.910;60.612;2023-09-19T03:01:35;7.07;;;5.22;;
82338;SDS011;72584;56.910;60.612;2023-09-19T03:04:02;8.63;;;6.18;;
82338;SDS011;72584;56.910;60.612;2023-09-19T03:06:27;6.47;;;4.93;;
82338;SDS011;72584;56.910;60.612;2023-09-19T03:08:54;8.98;;;5.68;;
82338;SDS011;72584;56.910;60.612;2023-09-19T03:11:20;9.55;;;5.75;;
82338;SDS011;72584;56.910;60.612;2023-09-19T03:13:54;7.72;;;6.15;;
82338;SDS011;72584;56.910;60.612;2023-09-19T03:16:19;9.98;;;5.85;;
82338;SDS011;72584;56.910;60.612;2023-09-19T03:18:47;9.38;;;5.25;;
82338;SDS011;72584;56.910;60.612;2023-09-19T03:21:14;11.25;;;5.50;;
82338;SDS011;72584;56.910;60.612;2023-09-19T03:23:39;10.10;;;6.60;;
82338;SDS011;72584;56.910;60.612;2023-09-19T03:26:05;10.27;;;5.35;;
82338;SDS011;72584;56.910;60.612;2023-09-19T03:28:32;9.85;;;5.28;;
82338;SDS011;72584;56.910;60.612;2023-09-19T03:30:59;11.32;;;5.82;;
82338;SDS011;72584;56.910;60.612;2023-09-19T03:33:25;7.82;;;6.43;;
82338;SDS011;72584;56.910;60.612;2023-09-19T03:35:53;10.27;;;5.00;;
82338;SDS011;72584;56.910;60.612;2023-09-19T03:38:19;12.32;;;7.70;;
82338;SDS011;72584;56.910;60.612;2023-09-19T03:40:44;10.45;;;6.55;;
82338;SDS011;72584;56.910;60.612;2023-09-19T03:43:10;13.50;;;6.47;;
82338;SDS011;72584;56.910;60.612;2023-09-19T03:45:35;12.32;;;6.57;;
82338;SDS011;72584;56.910;60.612;2023-09-19T03:48:00;7.72;;;5.63;;
82338;SDS011;72584;56.910;60.612;2023-09-19T03:50:26;9.48;;;5.78;;
82338;SDS011;72584;56.910;60.612;2023-09-19T03:52:55;13.05;;;5.80;;
82338;SDS011;72584;56.910;60.612;2023-09-19T03:55:21;8.43;;;4.45;;
82338;SDS011;72584;56.910;60.612;2023-09-19T03:57:49;8.13;;;5.13;;
82338;SDS011;72584;56.910;60.612;2023-09-19T04:00:15;9.35;;;4.97;;
82338;SDS011;72584;56.910;60.612;2023-09-19T04:02:43;7.55;;;5.38;;
82338;SDS011;72584;56.910;60.612;2023-09-19T04:05:08;8.15;;;5.30;;
82338;SDS011;72584;56.910;60.612;2023-09-19T04:07:35;7.50;;;4.07;;
82338;SDS011;72584;56.910;60.612;2023-09-19T04:10:01;6.35;;;4.55;;
82338;SDS011;72584;56.910;60.612;2023-09-19T04:12:26;11.77;;;5.03;;
82338;SDS011;72584;56.910;60.612;2023-09-19T04:14:52;8.60;;;4.75;;
82338;SDS011;72584;56.910;60.612;2023-09-19T04:17:17;7.10;;;4.50;;
82338;SDS011;72584;56.910;60.612;2023-09-19T04:19:43;7.90;;;4.85;;
82338;SDS011;72584;56.910;60.612;2023-09-19T04:22:10;6.65;;;4.35;;
82338;SDS011;72584;56.910;60.612;2023-09-19T04:24:37;8.43;;;4.78;;
82338;SDS011;72584;56.910;60.612;2023-09-19T04:27:03;8.23;;;4.18;;
82338;SDS011;72584;56.910;60.612;2023-09-19T04:29:28;6.47;;;4.85;;
82338;SDS011;72584;56.910;60.612;2023-09-19T04:31:54;10.50;;;4.88;;
82338;SDS011;72584;56.910;60.612;2023-09-19T04:34:19;6.57;;;4.50;;
82338;SDS011;72584;56.910;60.612;2023-09-19T04:36:45;13.32;;;4.60;;
82338;SDS011;72584;56.910;60.612;2023-09-19T04:39:11;6.35;;;4.25;;
82338;SDS011;72584;56.910;60.612;2023-09-19T04:41:37;8.70;;;4.38;;
82338;SDS011;72584;56.910;60.612;2023-09-19T04:44:06;7.20;;;4.35;;
82338;SDS011;72584;56.910;60.612;2023-09-19T04:46:31;7.32;;;3.42;;
82338;SDS011;72584;56.910;60.612;2023-09-19T04:48:56;5.47;;;4.22;;
82338;SDS011;72584;56.910;60.612;2023-09-19T04:51:22;7.65;;;4.25;;
82338;SDS011;72584;56.910;60.612;2023-09-19T04:53:48;8.15;;;4.07;;
82338;SDS011;72584;56.910;60.612;2023-09-19T04:56:14;7.13;;;4.13;;
82338;SDS011;72584;56.910;60.612;2023-09-19T04:58:40;5.35;;;3.78;;
82338;SDS011;72584;56.910;60.612;2023-09-19T05:01:05;5.65;;;4.45;;
82338;SDS011;72584;56.910;60.612;2023-09-19T05:03:31;8.98;;;3.80;;
82338;SDS011;72584;56.910;60.612;2023-09-19T05:05:56;5.97;;;3.75;;
82338;SDS011;72584;56.910;60.612;2023-09-19T05:08:22;6.18;;;3.42;;
82338;SDS011;72584;56.910;60.612;2023-09-19T05:10:47;7.13;;;4.07;;
82338;SDS011;72584;56.910;60.612;2023-09-19T05:13:14;7.63;;;3.40;;
82338;SDS011;72584;56.910;60.612;2023-09-19T05:15:39;8.48;;;3.95;;
82338;SDS011;72584;56.910;60.612;2023-09-19T05:18:05;6.03;;;3.60;;
82338;SDS011;72584;56.910;60.612;2023-09-19T05:20:31;7.88;;;4.10;;
82338;SDS011;72584;56.910;60.612;2023-09-19T05:23:03;8.32;;;4.13;;
82338;SDS011;72584;56.910;60.612;2023-09-19T05:25:34;6.45;;;4.43;;
82338;SDS011;72584;56.910;60.612;2023-09-19T05:28:02;9.43;;;3.47;;
82338;SDS011;72584;56.910;60.612;2023-09-19T05:30:29;8.50;;;3.65;;
82338;SDS011;72584;56.910;60.612;2023-09-19T05:32:55;4.10;;;2.53;;
82338;SDS011;72584;56.910;60.612;2023-09-19T05:35:21;6.22;;;3.15;;
82338;SDS011;72584;56.910;60.612;2023-09-19T05:37:47;5.30;;;3.15;;
82338;SDS011;72584;56.910;60.612;2023-09-19T05:40:14;5.55;;;3.72;;
82338;SDS011;72584;56.910;60.612;2023-09-19T05:42:41;6.30;;;3.95;;
82338;SDS011;72584;56.910;60.612;2023-09-19T05:45:07;20.33;;;10.25;;
82338;SDS011;72584;56.910;60.612;2023-09-19T05:47:33;7.93;;;4.50;;
82338;SDS011;72584;56.910;60.612;2023-09-19T05:49:59;7.57;;;5.00;;
82338;SDS011;72584;56.910;60.612;2023-09-19T05:52:24;7.03;;;4.35;;
82338;SDS011;72584;56.910;60.612;2023-09-19T05:54:50;3.47;;;2.60;;
82338;SDS011;72584;56.910;60.612;2023-09-19T05:57:15;7.10;;;4.07;;
82338;SDS011;72584;56.910;60.612;2023-09-19T05:59:41;7.43;;;3.88;;
82338;SDS011;72584;56.910;60.612;2023-09-19T06:02:08;6.40;;;3.83;;
82338;SDS011;72584;56.910;60.612;2023-09-19T06:04:35;11.30;;;3.65;;
82338;SDS011;72584;56.910;60.612;2023-09-19T06:07:00;5.50;;;3.63;;
82338;SDS011;72584;56.910;60.612;2023-09-19T06:09:25;6.15;;;3.33;;
82338;SDS011;72584;56.910;60.612;2023-09-19T06:11:53;4.20;;;2.83;;
82338;SDS011;72584;56.910;60.612;2023-09-19T06:14:18;6.78;;;3.00;;
82338;SDS011;72584;56.910;60.612;2023-09-19T06:16:44;5.78;;;3.50;;
82338;SDS011;72584;56.910;60.612;2023-09-19T06:19:10;4.32;;;3.08;;
82338;SDS011;72584;56.910;60.612;2023-09-19T06:21:36;7.95;;;4.07;;
82338;SDS011;72584;56.910;60.612;2023-09-19T06:24:01;6.95;;;3.65;;
82338;SDS011;72584;56.910;60.612;2023-09-19T06:26:28;5.85;;;3.25;;
82338;SDS011;72584;56.910;60.612;2023-09-19T06:28:54;6.35;;;3.35;;
82338;SDS011;72584;56.910;60.612;2023-09-19T06:31:21;6.38;;;4.00;;
82338;SDS011;72584;56.910;60.612;2023-09-19T06:33:48;7.97;;;4.10;;
82338;SDS011;72584;56.910;60.612;2023-09-19T06:36:13;9.52;;;3.58;;
82338;SDS011;72584;56.910;60.612;2023-09-19T06:38:38;5.13;;;3.58;;
82338;SDS011;72584;56.910;60.612;2023-09-19T06:41:04;5.07;;;3.30;;
82338;SDS011;72584;56.910;60.612;2023-09-19T06:43:31;5.38;;;3.13;;
82338;SDS011;72584;56.910;60.612;2023-09-19T06:45:56;4.55;;;2.80;;
82338;SDS011;72584;56.910;60.612;2023-09-19T06:48:22;7.15;;;3.75;;
82338;SDS011;72584;56.910;60.612;2023-09-19T06:50:50;6.88;;;3.70;;
82338;SDS011;72584;56.910;60.612;2023-09-19T06:53:15;5.40;;;3.60;;
82338;SDS011;72584;56.910;60.612;2023-09-19T06:55:42;5.40;;;3.30;;
82338;SDS011;72584;56.910;60.612;2023-09-19T06:58:09;4.78;;;3.78;;
82338;SDS011;72584;56.910;60.612;2023-09-19T07:00:36;4.35;;;2.97;;
82338;SDS011;72584;56.910;60.612;2023-09-19T07:03:03;4.78;;;3.38;;
82338;SDS011;72584;56.910;60.612;2023-09-19T07:05:29;3.60;;;2.78;;
82338;SDS011;72584;56.910;60.612;2023-09-19T07:07:56;6.40;;;3.70;;
82338;SDS011;72584;56.910;60.612;2023-09-19T07:10:24;8.10;;;4.00;;
82338;SDS011;72584;56.910;60.612;2023-09-19T07:12:57;6.07;;;4.43;;
82338;SDS011;72584;56.910;60.612;2023-09-19T07:15:23;4.25;;;3.00;;
82338;SDS011;72584;56.910;60.612;2023-09-19T07:17:50;3.55;;;2.88;;
82338;SDS011;72584;56.910;60.612;2023-09-19T07:20:15;4.00;;;2.85;;
82338;SDS011;72584;56.910;60.612;2023-09-19T07:22:41;8.70;;;3.63;;
82338;SDS011;72584;56.910;60.612;2023-09-19T07:25:07;7.43;;;3.60;;
82338;SDS011;72584;56.910;60.612;2023-09-19T07:27:32;3.95;;;3.08;;
82338;SDS011;72584;56.910;60.612;2023-09-19T07:29:57;4.57;;;3.22;;
82338;SDS011;72584;56.910;60.612;2023-09-19T07:32:24;8.48;;;3.20;;
82338;SDS011;72584;56.910;60.612;2023-09-19T07:34:49;9.20;;;4.25;;
82338;SDS011;72584;56.910;60.612;2023-09-19T07:37:14;5.00;;;3.40;;
82338;SDS011;72584;56.910;60.612;2023-09-19T07:39:40;7.82;;;3.33;;
82338;SDS011;72584;56.910;60.612;2023-09-19T07:42:06;4.45;;;3.03;;
82338;SDS011;72584;56.910;60.612;2023-09-19T07:44:32;5.13;;;3.03;;
82338;SDS011;72584;56.910;60.612;2023-09-19T07:46:57;7.13;;;3.53;;
82338;SDS011;72584;56.910;60.612;2023-09-19T07:49:23;7.68;;;3.30;;
82338;SDS011;72584;56.910;60.612;2023-09-19T07:51:48;4.38;;;2.88;;
82338;SDS011;72584;56.910;60.612;2023-09-19T07:54:14;5.82;;;3.60;;
82338;SDS011;72584;56.910;60.612;2023-09-19T07:56:40;6.72;;;3.08;;
82338;SDS011;72584;56.910;60.612;2023-09-19T07:59:05;5.60;;;3.90;;
82338;SDS011;72584;56.910;60.612;2023-09-19T08:01:30;6.00;;;3.60;;
82338;SDS011;72584;56.910;60.612;2023-09-19T08:03:56;7.20;;;3.60;;
82338;SDS011;72584;56.910;60.612;2023-09-19T08:06:22;5.20;;;3.25;;
82338;SDS011;72584;56.910;60.612;2023-09-19T08:08:50;6.13;;;4.15;;
82338;SDS011;72584;56.910;60.612;2023-09-19T08:11:15;7.60;;;3.75;;
82338;SDS011;72584;56.910;60.612;2023-09-19T08:13:46;6.25;;;3.70;;
82338;SDS011;72584;56.910;60.612;2023-09-19T08:16:14;4.82;;;3.38;;
82338;SDS011;72584;56.910;60.612;2023-09-19T08:18:47;4.15;;;2.72;;
82338;SDS011;72584;56.910;60.612;2023-09-19T08:21:13;4.68;;;2.50;;
82338;SDS011;72584;56.910;60.612;2023-09-19T08:23:39;4.07;;;2.72;;
82338;SDS011;72584;56.910;60.612;2023-09-19T08:26:05;5.47;;;2.80;;
82338;SDS011;72584;56.910;60.612;2023-09-19T08:28:35;6.20;;;3.40;;
82338;SDS011;72584;56.910;60.612;2023-09-19T08:31:01;6.25;;;3.95;;
82338;SDS011;72584;56.910;60.612;2023-09-19T08:33:27;8.50;;;3.50;;
82338;SDS011;72584;56.910;60.612;2023-09-19T08:35:52;5.00;;;3.10;;
82338;SDS011;72584;56.910;60.612;2023-09-19T08:38:21;4.72;;;3.25;;
82338;SDS011;72584;56.910;60.612;2023-09-19T08:40:46;7.60;;;4.28;;
82338;SDS011;72584;56.910;60.612;2023-09-19T08:43:11;5.30;;;3.10;;
82338;SDS011;72584;56.910;60.612;2023-09-19T08:45:37;8.30;;;4.20;;
82338;SDS011;72584;56.910;60.612;2023-09-19T08:48:09;6.75;;;3.33;;
82338;SDS011;72584;56.910;60.612;2023-09-19T08:53:46;4.38;;;2.60;;
82338;SDS011;72584;56.910;60.612;2023-09-19T08:56:14;6.38;;;3.25;;
82338;SDS011;72584;56.910;60.612;2023-09-19T08:58:44;2.92;;;2.30;;
82338;SDS011;72584;56.910;60.612;2023-09-19T09:01:10;5.38;;;2.42;;
82338;SDS011;72584;56.910;60.612;2023-09-19T09:03:37;3.35;;;2.55;;
82338;SDS011;72584;56.910;60.612;2023-09-19T09:06:04;3.50;;;2.67;;
82338;SDS011;72584;56.910;60.612;2023-09-19T09:08:30;4.95;;;2.40;;
82338;SDS011;72584;56.910;60.612;2023-09-19T09:10:56;4.78;;;2.60;;
82338;SDS011;72584;56.910;60.612;2023-09-19T09:13:22;19.00;;;6.82;;
82338;SDS011;72584;56.910;60.612;2023-09-19T09:15:51;5.85;;;2.65;;
82338;SDS011;72584;56.910;60.612;2023-09-19T09:18:17;5.40;;;3.15;;
82338;SDS011;72584;56.910;60.612;2023-09-19T09:20:43;8.18;;;3.15;;
82338;SDS011;72584;56.910;60.612;2023-09-19T09:23:09;4.18;;;2.70;;
82338;SDS011;72584;56.910;60.612;2023-09-19T09:25:51;3.70;;;3.00;;
82338;SDS011;72584;56.910;60.612;2023-09-19T09:28:23;6.22;;;3.30;;
82338;SDS011;72584;56.910;60.612;2023-09-19T09:30:49;3.88;;;2.53;;
82338;SDS011;72584;56.910;60.612;2023-09-19T09:33:15;3.25;;;2.35;;
82338;SDS011;72584;56.910;60.612;2023-09-19T09:38:13;8.32;;;2.50;;
82338;SDS011;72584;56.910;60.612;2023-09-19T09:40:51;3.10;;;2.45;;
82338;SDS011;72584;56.910;60.612;2023-09-19T09:43:38;3.63;;;2.42;;
82338;SDS011;72584;56.910;60.612;2023-09-19T09:46:15;4.30;;;2.25;;
82338;SDS011;72584;56.910;60.612;2023-09-19T09:48:46;4.22;;;2.47;;
82338;SDS011;72584;56.910;60.612;2023-09-19T09:51:32;4.22;;;2.97;;
82338;SDS011;72584;56.910;60.612;2023-09-19T09:54:14;3.58;;;2.22;;
82338;SDS011;72584;56.910;60.612;2023-09-19T09:56:53;3.13;;;2.10;;
82338;SDS011;72584;56.910;60.612;2023-09-19T10:02:30;4.10;;;2.40;;
82338;SDS011;72584;56.910;60.612;2023-09-19T10:05:14;4.65;;;2.80;;
82338;SDS011;72584;56.910;60.612;2023-09-19T10:07:58;3.67;;;2.45;;
82338;SDS011;72584;56.910;60.612;2023-09-19T10:10:38;5.03;;;2.33;;
82338;SDS011;72584;56.910;60.612;2023-09-19T10:13:25;5.45;;;2.95;;
82338;SDS011;72584;56.910;60.612;2023-09-19T10:15:52;10.70;;;3.10;;
82338;SDS011;72584;56.910;60.612;2023-09-19T10:18:20;2.05;;;1.75;;
82338;SDS011;72584;56.910;60.612;2023-09-19T10:20:46;4.10;;;2.40;;
82338;SDS011;72584;56.910;60.612;2023-09-19T10:23:14;2.47;;;2.17;;
82338;SDS011;72584;56.910;60.612;2023-09-19T10:25:41;2.67;;;2.15;;
82338;SDS011;72584;56.910;60.612;2023-09-19T10:28:07;5.03;;;2.70;;
82338;SDS011;72584;56.910;60.612;2023-09-19T10:30:37;5.03;;;2.88;;
82338;SDS011;72584;56.910;60.612;2023-09-19T10:33:04;3.30;;;2.50;;
82338;SDS011;72584;56.910;60.612;2023-09-19T10:35:33;2.75;;;2.03;;
82338;SDS011;72584;56.910;60.612;2023-09-19T10:38:00;7.00;;;2.47;;
82338;SDS011;72584;56.910;60.612;2023-09-19T10:40:27;2.63;;;1.98;;
82338;SDS011;72584;56.910;60.612;2023-09-19T10:42:59;2.75;;;1.77;;
82338;SDS011;72584;56.910;60.612;2023-09-19T10:47:51;4.30;;;1.98;;
82338;SDS011;72584;56.910;60.612;2023-09-19T10:50:20;4.28;;;2.40;;
82338;SDS011;72584;56.910;60.612;2023-09-19T10:52:46;7.18;;;3.05;;
82338;SDS011;72584;56.910;60.612;2023-09-19T10:55:17;4.78;;;2.78;;
82338;SDS011;72584;56.910;60.612;2023-09-19T10:57:44;5.57;;;2.35;;
82338;SDS011;72584;56.910;60.612;2023-09-19T11:00:09;3.72;;;2.22;;
82338;SDS011;72584;56.910;60.612;2023-09-19T11:05:34;4.00;;;2.17;;
82338;SDS011;72584;56.910;60.612;2023-09-19T11:08:00;5.30;;;2.10;;
82338;SDS011;72584;56.910;60.612;2023-09-19T11:13:26;3.22;;;2.00;;
82338;SDS011;72584;56.910;60.612;2023-09-19T11:23:58;5.55;;;2.30;;
82338;SDS011;72584;56.910;60.612;2023-09-19T11:29:24;4.15;;;2.10;;
82338;SDS011;72584;56.910;60.612;2023-09-19T11:31:51;4.53;;;2.30;;
82338;SDS011;72584;56.910;60.612;2023-09-19T11:37:00;4.38;;;2.22;;
82338;SDS011;72584;56.910;60.612;2023-09-19T11:39:29;2.10;;;1.80;;
82338;SDS011;72584;56.910;60.612;2023-09-19T11:41:54;4.45;;;2.03;;
82338;SDS011;72584;56.910;60.612;2023-09-19T11:44:31;4.53;;;1.90;;
82338;SDS011;72584;56.910;60.612;2023-09-19T11:46:59;2.75;;;1.92;;
82338;SDS011;72584;56.910;60.612;2023-09-19T11:49:29;2.67;;;1.92;;
82338;SDS011;72584;56.910;60.612;2023-09-19T11:51:57;4.43;;;2.88;;
82338;SDS011;72584;56.910;60.612;2023-09-19T11:54:22;3.90;;;2.30;;
82338;SDS011;72584;56.910;60.612;2023-09-19T11:56:49;7.82;;;2.38;;
82338;SDS011;72584;56.910;60.612;2023-09-19T11:59:21;6.05;;;3.03;;
82338;SDS011;72584;56.910;60.612;2023-09-19T12:01:53;6.38;;;2.50;;
82338;SDS011;72584;56.910;60.612;2023-09-19T12:04:35;4.93;;;2.05;;
82338;SDS011;72584;56.910;60.612;2023-09-19T12:07:10;5.93;;;2.47;;
82338;SDS011;72584;56.910;60.612;2023-09-19T12:09:39;3.75;;;1.95;;
82338;SDS011;72584;56.910;60.612;2023-09-19T12:12:06;3.92;;;1.80;;
82338;SDS011;72584;56.910;60.612;2023-09-19T12:14:31;3.25;;;1.80;;
82338;SDS011;72584;56.910;60.612;2023-09-19T12:16:58;4.38;;;2.10;;
82338;SDS011;72584;56.910;60.612;2023-09-19T12:19:25;4.65;;;2.28;;
82338;SDS011;72584;56.910;60.612;2023-09-19T12:22:08;2.17;;;1.80;;
82338;SDS011;72584;56.910;60.612;2023-09-19T12:24:34;2.35;;;1.63;;
82338;SDS011;72584;56.910;60.612;2023-09-19T12:27:06;3.53;;;2.00;;
82338;SDS011;72584;56.910;60.612;2023-09-19T12:29:32;4.35;;;2.47;;
82338;SDS011;72584;56.910;60.612;2023-09-19T12:32:06;2.80;;;2.30;;
82338;SDS011;72584;56.910;60.612;2023-09-19T12:34:32;6.15;;;1.98;;
82338;SDS011;72584;56.910;60.612;2023-09-19T12:37:10;5.63;;;2.08;;
82338;SDS011;72584;56.910;60.612;2023-09-19T12:39:40;2.92;;;2.20;;
82338;SDS011;72584;56.910;60.612;2023-09-19T12:42:25;4.35;;;1.80;;
82338;SDS011;72584;56.910;60.612;2023-09-19T12:44:57;3.08;;;2.08;;
82338;SDS011;72584;56.910;60.612;2023-09-19T12:47:27;4.93;;;2.60;;
82338;SDS011;72584;56.910;60.612;2023-09-19T12:50:05;5.20;;;2.25;;
82338;SDS011;72584;56.910;60.612;2023-09-19T12:52:37;7.25;;;2.67;;
82338;SDS011;72584;56.910;60.612;2023-09-19T12:55:03;4.32;;;2.65;;
82338;SDS011;72584;56.910;60.612;2023-09-19T12:57:32;4.25;;;2.63;;
82338;SDS011;72584;56.910;60.612;2023-09-19T13:00:00;3.33;;;2.50;;
82338;SDS011;72584;56.910;60.612;2023-09-19T13:02:26;2.97;;;2.30;;
82338;SDS011;72584;56.910;60.612;2023-09-19T13:04:53;5.35;;;2.33;;
82338;SDS011;72584;56.910;60.612;2023-09-19T13:10:04;3.35;;;2.00;;
82338;SDS011;72584;56.910;60.612;2023-09-19T13:12:36;3.45;;;2.33;;
82338;SDS011;72584;56.910;60.612;2023-09-19T13:15:12;2.70;;;2.00;;
82338;SDS011;72584;56.910;60.612;2023-09-19T13:17:55;3.05;;;2.38;;
82338;SDS011;72584;56.910;60.612;2023-09-19T13:20:25;3.03;;;2.10;;
82338;SDS011;72584;56.910;60.612;2023-09-19T13:22:53;2.55;;;2.00;;
82338;SDS011;72584;56.910;60.612;2023-09-19T13:25:20;4.35;;;2.13;;
82338;SDS011;72584;56.910;60.612;2023-09-19T13:27:56;3.63;;;2.67;;
82338;SDS011;72584;56.910;60.612;2023-09-19T13:30:23;9.02;;;2.35;;
82338;SDS011;72584;56.910;60.612;2023-09-19T13:32:50;3.03;;;1.70;;
82338;SDS011;72584;56.910;60.612;2023-09-19T13:35:16;2.33;;;1.92;;
82338;SDS011;72584;56.910;60.612;2023-09-19T13:37:42;3.58;;;2.13;;
82338;SDS011;72584;56.910;60.612;2023-09-19T13:40:08;2.97;;;2.17;;
82338;SDS011;72584;56.910;60.612;2023-09-19T13:42:34;3.70;;;2.30;;
82338;SDS011;72584;56.910;60.612;2023-09-19T13:45:00;4.88;;;2.72;;
82338;SDS011;72584;56.910;60.612;2023-09-19T13:47:25;5.63;;;3.42;;
82338;SDS011;72584;56.910;60.612;2023-09-19T13:49:52;7.32;;;3.15;;
82338;SDS011;72584;56.910;60.612;2023-09-19T13:52:18;9.10;;;3.13;;
82338;SDS011;72584;56.910;60.612;2023-09-19T13:54:44;9.18;;;2.40;;
82338;SDS011;72584;56.910;60.612;2023-09-19T13:57:09;5.57;;;3.58;;
82338;SDS011;72584;56.910;60.612;2023-09-19T13:59:35;10.95;;;4.75;;
82338;SDS011;72584;56.910;60.612;2023-09-19T14:02:00;7.07;;;4.30;;
82338;SDS011;72584;56.910;60.612;2023-09-19T14:04:26;5.10;;;4.13;;
82338;SDS011;72584;56.910;60.612;2023-09-19T14:06:53;12.18;;;4.22;;
82338;SDS011;72584;56.910;60.612;2023-09-19T14:09:19;8.73;;;5.68;;
82338;SDS011;72584;56.910;60.612;2023-09-19T14:11:45;6.93;;;5.07;;
82338;SDS011;72584;56.910;60.612;2023-09-19T14:14:12;5.78;;;4.43;;
82338;SDS011;72584;56.910;60.612;2023-09-19T14:16:38;8.30;;;4.50;;
82338;SDS011;72584;56.910;60.612;2023-09-19T14:19:04;4.55;;;2.45;;
82338;SDS011;72584;56.910;60.612;2023-09-19T14:21:30;4.18;;;2.15;;
82338;SDS011;72584;56.910;60.612;2023-09-19T14:23:55;7.28;;;3.72;;
82338;SDS011;72584;56.910;60.612;2023-09-19T14:26:21;7.88;;;2.72;;
82338;SDS011;72584;56.910;60.612;2023-09-19T14:28:48;3.33;;;2.40;;
82338;SDS011;72584;56.910;60.612;2023-09-19T14:31:13;6.13;;;2.33;;
82338;SDS011;72584;56.910;60.612;2023-09-19T14:33:40;5.53;;;1.92;;
82338;SDS011;72584;56.910;60.612;2023-09-19T14:36:07;2.45;;;1.95;;
82338;SDS011;72584;56.910;60.612;2023-09-19T14:38:33;2.08;;;1.60;;
82338;SDS011;72584;56.910;60.612;2023-09-19T14:41:02;2.88;;;1.80;;
82338;SDS011;72584;56.910;60.612;2023-09-19T14:43:28;4.10;;;2.00;;
82338;SDS011;72584;56.910;60.612;2023-09-19T14:46:02;6.18;;;2.17;;
82338;SDS011;72584;56.910;60.612;2023-09-19T14:48:27;5.00;;;2.20;;
82338;SDS011;72584;56.910;60.612;2023-09-19T14:50:53;5.07;;;2.42;;
82338;SDS011;72584;56.910;60.612;2023-09-19T14:53:20;14.98;;;3.95;;
82338;SDS011;72584;56.910;60.612;2023-09-19T14:55:45;14.45;;;4.40;;
82338;SDS011;72584;56.910;60.612;2023-09-19T14:58:13;5.13;;;3.63;;
82338;SDS011;72584;56.910;60.612;2023-09-19T15:00:38;5.32;;;3.08;;
82338;SDS011;72584;56.910;60.612;2023-09-19T15:03:04;4.90;;;2.88;;
82338;SDS011;72584;56.910;60.612;2023-09-19T15:05:29;5.50;;;2.55;;
82338;SDS011;72584;56.910;60.612;2023-09-19T15:07:55;5.20;;;2.53;;
82338;SDS011;72584;56.910;60.612;2023-09-19T15:10:22;3.65;;;2.35;;
82338;SDS011;72584;56.910;60.612;2023-09-19T15:12:47;5.30;;;2.00;;
82338;SDS011;72584;56.910;60.612;2023-09-19T15:15:13;3.50;;;2.15;;
82338;SDS011;72584;56.910;60.612;2023-09-19T15:17:38;3.45;;;1.80;;
82338;SDS011;72584;56.910;60.612;2023-09-19T15:20:06;3.25;;;1.85;;
82338;SDS011;72584;56.910;60.612;2023-09-19T15:22:35;4.03;;;2.17;;
82338;SDS011;72584;56.910;60.612;2023-09-19T15:25:01;4.22;;;1.70;;